RJAZ(METAR)
03/23 15:00
RJAZ 230600Z 30009KT CAVOK 11/02 Q1014 RMK A2995=
戻る
トップページへ戻る
IMOC Co,.Ltd.